Data for 05/23/2010

Time Sea-Level Adjusted Pressure Absolute Pressure Temperature Relative Humidity Dew Point   
(mb) (inHg) (mb) (inHg) (C) (F) (%) (C) (F)
00:05 1009 29.8 839 24.78 0.4 32.7 93 -0.6 30.9
00:10 1009 29.8 839 24.78 0.5 32.8 91 -0.8 30.5
00:15 1009 29.8 839 24.78 0.7 33.2 90 -0.8 30.5
00:20 1010 29.83 839 24.78 0.6 33.1 90 -0.8 30.6
00:25 1010 29.83 839 24.78 0.4 32.7 91 -0.9 30.4
00:30 1010 29.83 839 24.78 0.1 32.1 92 -1.1 30.1
00:35 1009 29.8 839 24.78 -0 32 93 -1 30.1
00:40 1009 29.8 839 24.78 -0.2 31.7 93 -1.1 30
00:45 1009 29.8 839 24.78 -0.1 31.9 93 -1.1 30.1
00:50 1009 29.8 839 24.78 0.1 32.2 92 -1 30.3
00:55 1010 29.83 839 24.78 0.1 32.2 93 -0.9 30.3
01:00 1010 29.83 839 24.78 -0.1 31.8 94 -1 30.2
01:05 1009 29.8 839 24.78 -0.3 31.5 94 -1.1 30
01:10 1009 29.8 839 24.78 -0.3 31.5 93 -1.2 29.8
01:15 1009 29.8 839 24.78 -0.3 31.4 92 -1.4 29.4
01:20 1010 29.83 839 24.78 -0.4 31.3 93 -1.4 29.4
01:25 1010 29.83 839 24.78 -0.4 31.3 93 -1.5 29.4
01:30 1010 29.83 839 24.78 -0.4 31.3 92 -1.5 29.2
01:35 1010 29.83 839 24.78 -0.4 31.2 92 -1.6 29
01:40 1010 29.83 839 24.78 -0.4 31.2 90 -1.9 28.7
01:45 1010 29.83 839 24.78 -0.3 31.5 88 -2 28.4
01:50 1010 29.83 839 24.78 -0.2 31.6 87 -2.1 28.2
01:55 1010 29.83 839 24.78 -0.1 31.9 85 -2.2 28
02:00 1010 29.83 839 24.78 -0.2 31.7 86 -2.2 28.1
02:05 1010 29.83 839 24.78 -0.5 31.1 91 -1.9 28.6
02:10 1010 29.83 839 24.78 -0.7 30.7 91 -2.1 28.2
02:15 1010 29.83 839 24.78 -0.8 30.5 91 -2.2 28.1
02:20 1010 29.83 839 24.78 -0.8 30.5 89 -2.4 27.7
02:25 1010 29.83 839 24.78 -0.8 30.5 88 -2.6 27.4
02:30 1010 29.83 839 24.78 -0.9 30.4 86 -2.9 26.7
02:35 1010 29.83 839 24.78 -0.9 30.3 85 -3.1 26.4
02:40 1010 29.83 839 24.78 -1 30.2 87 -2.9 26.7
02:45 1010 29.83 839 24.78 -1.1 30 87 -3 26.6
02:50 1010 29.83 839 24.78 -1.2 29.9 86 -3.2 26.3
02:55 1010 29.83 839 24.78 -1.1 30 85 -3.3 26.1
03:00 1010 29.83 839 24.78 -1.1 30 84 -3.4 25.8
03:05 1010 29.83 840 24.81 -1 30.2 85 -3.3 26.1
03:10 1010 29.83 840 24.81 -1.2 29.9 84 -3.6 25.5
03:15 1011 29.85 840 24.81 -1.1 30 84 -3.5 25.7
03:20 1011 29.85 840 24.81 -1.1 30 86 -3.1 26.4
03:25 1011 29.85 840 24.81 -1.3 29.6 87 -3.2 26.2
03:30 1011 29.85 840 24.81 -1.5 29.3 90 -2.9 26.8
03:35 1011 29.85 840 24.81 -1.7 29 89 -3.2 26.2
03:40 1011 29.85 840 24.81 -1.7 29 84 -4 24.8
03:45 1011 29.85 840 24.81 -1.1 30 83 -3.7 25.4
03:50 1011 29.85 840 24.81 -1.2 29.9 86 -3.2 26.3
03:55 1011 29.85 840 24.81 -1.3 29.6 86 -3.4 25.8
04:00 1011 29.85 840 24.81 -1.4 29.5 87 -3.3 26
04:05 1011 29.85 840 24.81 -1.4 29.4 88 -3.3 26.1
04:10 1011 29.85 840 24.81 -1.5 29.4 86 -3.5 25.8
04:15 1011 29.85 840 24.81 -1.5 29.4 87 -3.3 26.1
04:20 1011 29.85 840 24.81 -1.5 29.4 87 -3.3 26.1
04:25 1011 29.85 840 24.81 -1.5 29.4 89 -3.1 26.4
04:30 1011 29.85 840 24.81 -1.4 29.5 86 -3.5 25.7
04:35 1011 29.85 840 24.81 -1.3 29.6 83 -3.8 25.2
04:40 1011 29.85 840 24.81 -1.3 29.7 84 -3.6 25.5
04:45 1011 29.85 840 24.81 -1.3 29.7 83 -3.7 25.3
04:50 1011 29.85 840 24.81 -1.1 30 80 -4.1 24.6
04:55 1011 29.85 840 24.81 -1 30.2 80 -4 24.7
05:00 1011 29.85 840 24.81 -1 30.2 81 -3.9 24.9
05:05 1011 29.85 841 24.83 -1 30.2 81 -3.9 25
05:10 1011 29.85 841 24.83 -1.1 30 83 -3.6 25.5
05:15 1011 29.85 841 24.83 -1.3 29.7 84 -3.7 25.4
05:20 1012 29.88 841 24.83 -1.3 29.6 84 -3.6 25.4
05:25 1012 29.88 841 24.83 -1.3 29.6 83 -3.9 25
05:30 1012 29.88 841 24.83 -1.2 29.8 80 -4.2 24.5
05:35 1012 29.88 841 24.83 -1.1 30 80 -4.1 24.7
05:40 1012 29.88 841 24.83 -1.1 30 81 -4.1 24.7
05:45 1012 29.88 841 24.83 -1.2 29.9 81 -4.1 24.6
05:50 1012 29.88 841 24.83 -1.3 29.7 81 -4.1 24.6
05:55 1012 29.88 841 24.83 -1.1 30 79 -4.3 24.3
06:00 1012 29.88 841 24.83 -1.1 30 79 -4.4 24.1
06:05 1012 29.88 841 24.83 -1.1 30 79 -4.4 24.1
06:10 1012 29.88 841 24.83 -1.2 29.9 79 -4.3 24.3
06:15 1012 29.88 841 24.83 -1.3 29.7 80 -4.3 24.3
06:20 1012 29.88 841 24.83 -1.3 29.6 80 -4.3 24.3
06:25 1012 29.88 841 24.83 -1.4 29.5 80 -4.4 24.1
06:30 1012 29.88 842 24.86 -1.3 29.7 80 -4.3 24.3
06:35 1012 29.88 842 24.86 -1.2 29.8 80 -4.2 24.4
06:40 1012 29.88 842 24.86 -1.1 30.1 80 -4.1 24.6
06:45 1012 29.88 842 24.86 -1 30.2 80 -4 24.7
06:50 1013 29.91 842 24.86 -0.8 30.5 80 -3.9 25
06:55 1013 29.91 842 24.86 -0.7 30.8 79 -3.8 25.1
07:00 1013 29.91 842 24.86 -0.5 31.1 80 -3.5 25.6
07:05 1013 29.91 842 24.86 -0.2 31.6 79 -3.5 25.8
07:10 1013 29.91 842 24.86 -0.4 31.3 80 -3.5 25.7
07:15 1013 29.91 842 24.86 -0.2 31.7 78 -3.6 25.6
07:20 1013 29.91 842 24.86 0.1 32.1 77 -3.4 25.8
07:25 1013 29.91 842 24.86 0.3 32.6 78 -3.1 26.4
07:30 1013 29.91 842 24.86 0.7 33.2 76 -3.1 26.4
07:35 1013 29.91 842 24.86 0.9 33.5 73 -3.4 25.9
07:40 1013 29.91 842 24.86 1.3 34.4 71 -3.4 25.9
07:45 1013 29.91 842 24.86 1.8 35.3 71 -2.8 26.9
07:50 1013 29.91 842 24.86 1.9 35.5 69 -3.1 26.4
07:55 1013 29.91 842 24.86 2.3 36.2 69 -2.7 27.2
08:00 1013 29.91 842 24.86 2.4 36.3 68 -3 26.7
08:05 1013 29.91 842 24.86 2.5 36.4 69 -2.6 27.2
08:10 1013 29.91 842 24.86 2.9 37.2 62 -3.6 25.5
08:15 1013 29.91 842 24.86 3.4 38.1 62 -3.2 26.3
08:20 1013 29.91 842 24.86 3.2 37.8 63 -3.2 26.2
08:25 1013 29.91 843 24.89 3.5 38.3 62 -3 26.6
08:30 1013 29.91 843 24.89 3.3 37.9 62 -3.2 26.2
08:35 1013 29.91 843 24.89 3 37.4 63 -3.3 26
08:40 1014 29.94 843 24.89 2.9 37.3 66 -2.9 26.8
08:45 1014 29.94 843 24.89 3 37.4 64 -3.1 26.4
08:50 1014 29.94 843 24.89 3.3 38 64 -2.8 26.9
08:55 1013 29.91 843 24.89 4 39.1 65 -2 28.3
09:00 1013 29.91 843 24.89 4.3 39.7 56 -3.6 25.5
09:05 1013 29.91 843 24.89 4.7 40.5 54 -3.8 25.1
09:10 1013 29.91 843 24.89 4.8 40.7 54 -3.7 25.3
09:15 1013 29.91 843 24.89 4.2 39.6 58 -3.4 25.9
09:20 1013 29.91 843 24.89 3.8 38.9 55 -4.4 24.1
09:25 1013 29.91 843 24.89 4.2 39.5 53 -4.5 23.9
09:30 1013 29.91 843 24.89 4.8 40.6 56 -3.2 26.3
09:35 1014 29.94 843 24.89 4.9 40.9 52 -4.2 24.5
09:40 1014 29.94 843 24.89 5.2 41.4 51 -4.2 24.5
09:45 1014 29.94 843 24.89 4.3 39.8 52 -4.7 23.6
09:50 1014 29.94 843 24.89 4.5 40.1 54 -4 24.8
09:55 1014 29.94 843 24.89 5 41.1 51 -4.3 24.2
10:00 1014 29.94 843 24.89 5.1 41.2 49 -4.7 23.5
10:05 1014 29.94 843 24.89 5.4 41.7 46 -5.2 22.6
10:10 1014 29.94 843 24.89 5.6 42 46 -5.3 22.5
10:15 1014 29.94 843 24.89 5.4 41.7 48 -4.8 23.3
10:20 1014 29.94 843 24.89 5.7 42.2 45 -5.5 22.2
10:25 1014 29.94 843 24.89 5.4 41.7 46 -5.4 22.3
10:30 1014 29.94 843 24.89 5.6 42.1 45 -5.3 22.4
10:35 1014 29.94 843 24.89 6.3 43.3 43 -5.4 22.3
10:40 1014 29.94 843 24.89 6 42.8 41 -6.4 20.5
10:45 1014 29.94 843 24.89 5.8 42.4 45 -5.1 22.8
10:50 1013 29.91 843 24.89 6.5 43.8 41 -5.8 21.5
10:55 1013 29.91 843 24.89 7.4 45.4 40 -5.3 22.4
11:00 1014 29.94 843 24.89 7.4 45.3 42 -4.8 23.3
11:05 1013 29.91 843 24.89 7.8 46 42 -4.3 24.3
11:10 1013 29.91 843 24.89 7.8 46.1 40 -4.8 23.3
11:15 1013 29.91 843 24.89 7.1 44.7 43 -4.8 23.4
11:20 1013 29.91 843 24.89 7 44.5 42 -5.2 22.7
11:25 1013 29.91 842 24.86 7.3 45.1 42 -4.6 23.7
11:30 1013 29.91 843 24.89 6.8 44.2 44 -4.7 23.6
11:35 1013 29.91 843 24.89 7.5 45.6 42 -4.5 23.9
11:40 1013 29.91 842 24.86 7.4 45.3 39 -5.8 21.6
11:45 1013 29.91 842 24.86 8.2 46.7 39 -5 23
11:50 1013 29.91 842 24.86 8.7 47.6 38 -4.8 23.4
11:55 1013 29.91 842 24.86 8.4 47.1 40 -4.3 24.3
12:00 1013 29.91 842 24.86 8.5 47.2 38 -5 23
12:05 1013 29.91 842 24.86 8.8 47.8 35 -5.8 21.6
12:10 1013 29.91 842 24.86 9 48.2 36 -5.4 22.3
12:15 1013 29.91 842 24.86 9.8 49.6 36 -4.7 23.5
12:20 1013 29.91 842 24.86 9.1 48.4 37 -4.8 23.3
12:25 1013 29.91 842 24.86 9.7 49.4 35 -5.2 22.6
12:30 1013 29.91 842 24.86 9.9 49.8 33 -5.7 21.7
12:35 1013 29.91 842 24.86 9.9 49.9 36 -4.6 23.8
12:40 1013 29.91 842 24.86 9.8 49.6 36 -4.7 23.6
12:45 1013 29.91 842 24.86 9.9 49.8 36 -4.6 23.8
12:50 1013 29.91 842 24.86 9.5 49 35 -5.4 22.3
12:55 1013 29.91 842 24.86 10.4 50.6 35 -4.3 24.2
13:00 1013 29.91 842 24.86 10.3 50.5 36 -4.2 24.5
13:05 1013 29.91 842 24.86 9.4 48.9 34 -5.6 21.9
13:10 1013 29.91 842 24.86 9.9 49.9 34 -5.3 22.5
13:15 1013 29.91 842 24.86 10.4 50.6 35 -4.4 24.1
13:20 1013 29.91 842 24.86 10.3 50.6 35 -4.5 23.9
13:25 1013 29.91 842 24.86 9.6 49.3 37 -4.5 23.9
13:30 1012 29.88 842 24.86 8.8 47.9 36 -5.3 22.5
13:35 1012 29.88 842 24.86 9 48.1 38 -4.7 23.5
13:40 1012 29.88 842 24.86 9 48.2 37 -5 23
13:45 1012 29.88 842 24.86 7.9 46.3 39 -5.2 22.6
13:50 1012 29.88 842 24.86 8.5 47.3 37 -5.4 22.4
13:55 1012 29.88 842 24.86 10.2 50.4 34 -5.1 22.9
14:00 1012 29.88 842 24.86 10.9 51.6 32 -5.2 22.7
14:05 1012 29.88 842 24.86 10.6 51.1 33 -4.9 23.3
14:10 1012 29.88 842 24.86 10.2 50.3 32 -5.6 21.9
14:15 1012 29.88 841 24.83 10 50 32 -5.9 21.4
14:20 1012 29.88 841 24.83 10.4 50.7 35 -4.6 23.7
14:25 1012 29.88 841 24.83 9.6 49.2 36 -4.6 23.8
14:30 1012 29.88 841 24.83 9.3 48.8 37 -4.4 24
14:35 1012 29.88 841 24.83 9.5 49.1 35 -5.3 22.4
14:40 1012 29.88 841 24.83 9.7 49.4 36 -4.8 23.3
14:45 1012 29.88 841 24.83 10.5 50.8 35 -4.1 24.5
14:50 1012 29.88 841 24.83 11.5 52.6 31 -5.2 22.6
14:55 1012 29.88 841 24.83 11.8 53.2 31 -4.9 23.2
15:00 1012 29.88 841 24.83 11.6 52.8 33 -4.2 24.5
15:05 1012 29.88 841 24.83 11.9 53.4 30 -5.1 22.8
15:10 1012 29.88 841 24.83 11.8 53.3 30 -5 23
15:15 1012 29.88 841 24.83 11.4 52.5 31 -5.3 22.5
15:20 1012 29.88 841 24.83 11.8 53.2 31 -4.9 23.3
15:25 1012 29.88 841 24.83 12.3 54.2 31 -4.1 24.6
15:30 1012 29.88 841 24.83 12.3 54.1 31 -4.4 24
15:35 1012 29.88 841 24.83 11.1 51.9 31 -5.3 22.4
15:40 1012 29.88 841 24.83 9.7 49.5 35 -5.1 22.8
15:45 1012 29.88 841 24.83 10.6 51.1 31 -5.8 21.5
15:50 1012 29.88 841 24.83 11.2 52.2 33 -4.3 24.2
15:55 1012 29.88 841 24.83 10.6 51.1 33 -4.9 23.3
16:00 1012 29.88 841 24.83 9.6 49.4 33 -5.9 21.4
16:05 1012 29.88 841 24.83 10.5 50.8 34 -4.9 23.3
16:10 1012 29.88 841 24.83 11 51.8 34 -4.3 24.3
16:15 1012 29.88 841 24.83 11.5 52.7 30 -5.4 22.3
16:20 1012 29.88 841 24.83 11.9 53.5 31 -4.8 23.4
16:25 1012 29.88 841 24.83 12.5 54.6 30 -4.6 23.8
16:30 1012 29.88 841 24.83 12.5 54.5 30 -4.5 23.8
16:35 1012 29.88 841 24.83 12.6 54.7 29 -5 23
16:40 1012 29.88 841 24.83 12.7 54.8 30 -4.4 24
16:45 1012 29.88 841 24.83 12.3 54.1 32 -3.9 25
16:50 1011 29.85 841 24.83 10.3 50.5 34 -5 23
16:55 1011 29.85 841 24.83 11 51.8 32 -5.2 22.6
17:00 1011 29.85 841 24.83 12.4 54.2 29 -5.1 22.9
17:05 1011 29.85 841 24.83 12 53.6 31 -4.3 24.2
17:10 1011 29.85 841 24.83 12 53.6 31 -4.5 23.9
17:15 1011 29.85 841 24.83 12.5 54.5 30 -4.6 23.7
17:20 1011 29.85 841 24.83 13.4 56 28 -4.5 23.9
17:25 1011 29.85 841 24.83 12.6 54.7 30 -4.4 24.1
17:30 1011 29.85 841 24.83 12.2 54 31 -4.4 24
17:35 1011 29.85 841 24.83 12 53.7 32 -4 24.8
17:40 1011 29.85 841 24.83 11.9 53.4 32 -4.1 24.5
17:45 1011 29.85 841 24.83 10.9 51.6 35 -3.9 25
17:50 1011 29.85 841 24.83 10.2 50.3 36 -4 24.7
17:55 1012 29.88 841 24.83 10.4 50.8 36 -3.9 24.9
18:00 1012 29.88 841 24.83 10.1 50.1 37 -3.9 25
18:05 1012 29.88 841 24.83 10.2 50.4 35 -4.4 24.2
18:10 1012 29.88 841 24.83 10 50.1 38 -3.6 25.6
18:15 1011 29.85 841 24.83 10.4 50.7 38 -3.5 25.8
18:20 1012 29.88 841 24.83 10.6 51.2 38 -2.9 26.7
18:25 1012 29.88 841 24.83 9.8 49.7 40 -3 26.6
18:30 1012 29.88 841 24.83 9.3 48.8 41 -3.2 26.2
18:35 1011 29.85 841 24.83 9.3 48.7 42 -2.8 27
18:40 1011 29.85 841 24.83 9.2 48.6 42 -3 26.6
18:45 1011 29.85 841 24.83 9.4 48.8 42 -3 26.6
18:50 1011 29.85 841 24.83 9.3 48.7 44 -2.4 27.7
18:55 1011 29.85 841 24.83 9.1 48.4 45 -2.3 27.9
19:00 1011 29.85 841 24.83 9 48.2 52 -0.2 31.6
19:05 1011 29.85 840 24.81 8.4 47.2 53 -0.6 31
19:10 1011 29.85 840 24.81 8.2 46.8 55 -0.2 31.6
19:15 1011 29.85 840 24.81 8 46.3 56 -0.2 31.7
19:20 1011 29.85 840 24.81 7.8 46 56 -0.5 31.1
19:25 1011 29.85 840 24.81 7.7 45.9 56 -0.5 31.2
19:30 1011 29.85 840 24.81 7.8 46 56 -0.5 31.1
19:35 1011 29.85 840 24.81 7.8 46 56 -0.5 31.1
19:40 1011 29.85 840 24.81 7.9 46.2 55 -0.6 30.9
19:45 1011 29.85 840 24.81 7.8 46 55 -0.6 31
19:50 1011 29.85 840 24.81 8 46.4 54 -0.6 30.9
19:55 1011 29.85 840 24.81 7.8 46.1 55 -0.7 30.8
20:00 1011 29.85 840 24.81 7.9 46.2 54 -0.8 30.6
20:05 1011 29.85 840 24.81 7.8 46 55 -0.6 30.9
20:10 1011 29.85 840 24.81 7.7 45.9 55 -0.6 30.9
20:15 1011 29.85 840 24.81 7.7 45.8 56 -0.5 31.1
20:20 1011 29.85 840 24.81 7.6 45.8 57 -0.4 31.3
20:25 1011 29.85 840 24.81 7.5 45.5 57 -0.4 31.4
20:30 1011 29.85 840 24.81 7.4 45.3 58 -0.4 31.3
20:35 1011 29.85 840 24.81 7.3 45.2 58 -0.5 31.1
20:40 1011 29.85 840 24.81 7.3 45.1 58 -0.4 31.2
20:45 1011 29.85 840 24.81 7.2 45 58 -0.4 31.3
20:50 1011 29.85 840 24.81 7.2 45 59 -0.2 31.6
20:55 1011 29.85 840 24.81 7.1 44.8 60 -0.1 31.7
21:00 1011 29.85 840 24.81 7.1 44.7 61 0.1 32.2
21:05 1011 29.85 840 24.81 6.9 44.4 62 0.1 32.1
21:10 1011 29.85 840 24.81 6.9 44.4 61 0 32
21:15 1011 29.85 840 24.81 6.9 44.4 62 0.2 32.4
21:20 1011 29.85 840 24.81 6.9 44.5 63 0.3 32.6
21:25 1011 29.85 840 24.81 7 44.6 63 0.4 32.6
21:30 1011 29.85 840 24.81 6.9 44.5 62 0.3 32.5
21:35 1011 29.85 840 24.81 6.9 44.5 63 0.5 32.9
21:40 1011 29.85 840 24.81 6.9 44.5 62 0.3 32.5
21:45 1011 29.85 840 24.81 6.9 44.5 61 0 32.1
21:50 1011 29.85 840 24.81 7 44.6 62 0.3 32.5
21:55 1011 29.85 840 24.81 7 44.5 62 0.1 32.2
22:00 1011 29.85 840 24.81 7 44.6 62 0.3 32.5
22:05 1011 29.85 840 24.81 7 44.6 61 0 32
22:10 1011 29.85 840 24.81 7 44.5 61 0.1 32.1
22:15 1011 29.85 840 24.81 7.1 44.7 59 -0.5 31.2
22:20 1011 29.85 840 24.81 7.2 45 60 -0 32
22:25 1011 29.85 840 24.81 7.3 45.1 60 -0.1 31.9
22:30 1011 29.85 840 24.81 7.2 45 61 0.2 32.4
22:35 1011 29.85 840 24.81 7.1 44.8 62 0.3 32.6
22:40 1010 29.83 840 24.81 7 44.5 62 0.1 32.3
22:45 1010 29.83 839 24.78 7 44.5 62 0.3 32.5
22:50 1010 29.83 839 24.78 7 44.5 65 0.9 33.6
22:55 1010 29.83 839 24.78 6.6 43.9 68 1.2 34.2
23:00 1010 29.83 839 24.78 6.3 43.4 68 0.8 33.5
23:05 1010 29.83 839 24.78 6.1 43.1 69 0.9 33.6
23:10 1010 29.83 839 24.78 6.1 43 69 0.8 33.5
23:15 1010 29.83 839 24.78 6.2 43.1 68 0.7 33.3
23:20 1010 29.83 839 24.78 6 42.9 68 0.7 33.2
23:25 1010 29.83 839 24.78 6.1 42.9 68 0.5 33
23:30 1010 29.83 839 24.78 6.2 43.2 68 0.7 33.3
23:35 1010 29.83 839 24.78 6.3 43.3 68 0.8 33.4
23:40 1010 29.83 839 24.78 6.3 43.3 68 0.8 33.5
23:45 1010 29.83 839 24.78 6.2 43.2 68 0.8 33.4
23:50 1010 29.83 839 24.78 6.2 43.2 68 0.8 33.4
23:55 1010 29.83 839 24.78 6.2 43.1 69 1 33.8